sensor_id;sensor_type;location;lat;lon;timestamp;P1;durP1;ratioP1;P2;durP2;ratioP2
4353;SDS011;11018;51.258;6.806;2023-04-07T00:02:04;40.50;;;29.37;;
4353;SDS011;11018;51.258;6.806;2023-04-07T00:04:30;40.63;;;28.63;;
4353;SDS011;11018;51.258;6.806;2023-04-07T00:06:55;41.10;;;30.33;;
4353;SDS011;11018;51.258;6.806;2023-04-07T00:09:21;40.50;;;28.97;;
4353;SDS011;11018;51.258;6.806;2023-04-07T00:11:47;40.90;;;28.50;;
4353;SDS011;11018;51.258;6.806;2023-04-07T00:14:12;40.43;;;29.20;;
4353;SDS011;11018;51.258;6.806;2023-04-07T00:16:38;40.53;;;29.37;;
4353;SDS011;11018;51.258;6.806;2023-04-07T00:19:04;40.90;;;29.65;;
4353;SDS011;11018;51.258;6.806;2023-04-07T00:21:30;42.22;;;29.50;;
4353;SDS011;11018;51.258;6.806;2023-04-07T00:23:55;39.80;;;29.27;;
4353;SDS011;11018;51.258;6.806;2023-04-07T00:26:21;41.30;;;29.38;;
4353;SDS011;11018;51.258;6.806;2023-04-07T00:28:47;41.60;;;29.92;;
4353;SDS011;11018;51.258;6.806;2023-04-07T00:31:13;42.72;;;30.48;;
4353;SDS011;11018;51.258;6.806;2023-04-07T00:33:38;42.80;;;29.58;;
4353;SDS011;11018;51.258;6.806;2023-04-07T00:36:04;40.67;;;29.10;;
4353;SDS011;11018;51.258;6.806;2023-04-07T00:38:30;44.07;;;32.13;;
4353;SDS011;11018;51.258;6.806;2023-04-07T00:40:56;45.50;;;31.50;;
4353;SDS011;11018;51.258;6.806;2023-04-07T00:43:22;44.83;;;31.25;;
4353;SDS011;11018;51.258;6.806;2023-04-07T00:45:49;47.00;;;31.38;;
4353;SDS011;11018;51.258;6.806;2023-04-07T00:48:15;47.92;;;32.75;;
4353;SDS011;11018;51.258;6.806;2023-04-07T00:50:41;44.83;;;32.35;;
4353;SDS011;11018;51.258;6.806;2023-04-07T00:53:06;45.63;;;31.15;;
4353;SDS011;11018;51.258;6.806;2023-04-07T00:55:33;44.75;;;31.58;;
4353;SDS011;11018;51.258;6.806;2023-04-07T00:57:58;46.30;;;31.40;;
4353;SDS011;11018;51.258;6.806;2023-04-07T01:00:24;47.22;;;32.10;;
4353;SDS011;11018;51.258;6.806;2023-04-07T01:02:57;43.92;;;31.88;;
4353;SDS011;11018;51.258;6.806;2023-04-07T01:10:43;47.10;;;33.77;;
4353;SDS011;11018;51.258;6.806;2023-04-07T01:16:03;47.47;;;33.85;;
4353;SDS011;11018;51.258;6.806;2023-04-07T01:18:34;46.53;;;33.95;;
4353;SDS011;11018;51.258;6.806;2023-04-07T01:21:02;51.67;;;35.40;;
4353;SDS011;11018;51.258;6.806;2023-04-07T01:23:38;50.53;;;33.72;;
4353;SDS011;11018;51.258;6.806;2023-04-07T01:31:35;49.77;;;34.07;;
4353;SDS011;11018;51.258;6.806;2023-04-07T01:34:03;51.38;;;36.03;;
4353;SDS011;11018;51.258;6.806;2023-04-07T01:36:30;46.97;;;35.35;;
4353;SDS011;11018;51.258;6.806;2023-04-07T01:38:58;51.67;;;34.83;;
4353;SDS011;11018;51.258;6.806;2023-04-07T01:41:24;54.58;;;35.28;;
4353;SDS011;11018;51.258;6.806;2023-04-07T01:43:51;54.60;;;37.47;;
4353;SDS011;11018;51.258;6.806;2023-04-07T01:46:19;52.75;;;37.00;;
4353;SDS011;11018;51.258;6.806;2023-04-07T01:48:45;58.50;;;36.90;;
4353;SDS011;11018;51.258;6.806;2023-04-07T01:51:12;52.92;;;35.55;;
4353;SDS011;11018;51.258;6.806;2023-04-07T01:53:41;56.15;;;37.03;;
4353;SDS011;11018;51.258;6.806;2023-04-07T01:56:07;55.28;;;36.25;;
4353;SDS011;11018;51.258;6.806;2023-04-07T01:58:33;56.23;;;37.63;;
4353;SDS011;11018;51.258;6.806;2023-04-07T02:00:59;54.93;;;35.00;;
4353;SDS011;11018;51.258;6.806;2023-04-07T02:03:33;51.50;;;33.03;;
4353;SDS011;11018;51.258;6.806;2023-04-07T02:06:05;50.38;;;32.40;;
4353;SDS011;11018;51.258;6.806;2023-04-07T02:08:32;51.55;;;31.63;;
4353;SDS011;11018;51.258;6.806;2023-04-07T02:11:00;52.28;;;31.30;;
4353;SDS011;11018;51.258;6.806;2023-04-07T02:13:27;57.30;;;32.38;;
4353;SDS011;11018;51.258;6.806;2023-04-07T02:15:54;54.67;;;33.65;;
4353;SDS011;11018;51.258;6.806;2023-04-07T02:18:21;55.80;;;32.90;;
4353;SDS011;11018;51.258;6.806;2023-04-07T02:20:49;50.40;;;31.80;;
4353;SDS011;11018;51.258;6.806;2023-04-07T02:23:16;58.28;;;34.10;;
4353;SDS011;11018;51.258;6.806;2023-04-07T02:25:42;61.27;;;34.50;;
4353;SDS011;11018;51.258;6.806;2023-04-07T02:28:08;58.90;;;33.43;;
4353;SDS011;11018;51.258;6.806;2023-04-07T02:30:34;55.63;;;31.70;;
4353;SDS011;11018;51.258;6.806;2023-04-07T02:33:00;56.88;;;31.15;;
4353;SDS011;11018;51.258;6.806;2023-04-07T02:35:26;64.40;;;33.90;;
4353;SDS011;11018;51.258;6.806;2023-04-07T02:37:51;59.77;;;32.87;;
4353;SDS011;11018;51.258;6.806;2023-04-07T02:40:17;67.10;;;36.63;;
4353;SDS011;11018;51.258;6.806;2023-04-07T02:42:43;67.20;;;36.70;;
4353;SDS011;11018;51.258;6.806;2023-04-07T02:45:09;62.22;;;34.85;;
4353;SDS011;11018;51.258;6.806;2023-04-07T02:47:35;65.63;;;35.17;;
4353;SDS011;11018;51.258;6.806;2023-04-07T02:50:01;70.20;;;35.67;;
4353;SDS011;11018;51.258;6.806;2023-04-07T02:52:27;69.03;;;35.23;;
4353;SDS011;11018;51.258;6.806;2023-04-07T02:54:53;69.33;;;35.87;;
4353;SDS011;11018;51.258;6.806;2023-04-07T02:57:18;68.30;;;35.07;;
4353;SDS011;11018;51.258;6.806;2023-04-07T02:59:44;77.77;;;37.17;;
4353;SDS011;11018;51.258;6.806;2023-04-07T03:02:10;67.97;;;37.20;;
4353;SDS011;11018;51.258;6.806;2023-04-07T03:04:35;69.47;;;36.05;;
4353;SDS011;11018;51.258;6.806;2023-04-07T03:07:01;69.07;;;34.55;;
4353;SDS011;11018;51.258;6.806;2023-04-07T03:09:26;73.72;;;36.05;;
4353;SDS011;11018;51.258;6.806;2023-04-07T03:11:52;75.20;;;36.97;;
4353;SDS011;11018;51.258;6.806;2023-04-07T03:14:18;73.43;;;36.10;;
4353;SDS011;11018;51.258;6.806;2023-04-07T03:16:44;76.15;;;38.25;;
4353;SDS011;11018;51.258;6.806;2023-04-07T03:19:09;73.82;;;36.17;;
4353;SDS011;11018;51.258;6.806;2023-04-07T03:21:36;61.13;;;30.30;;
4353;SDS011;11018;51.258;6.806;2023-04-07T03:24:02;54.15;;;29.25;;
4353;SDS011;11018;51.258;6.806;2023-04-07T03:26:28;48.80;;;23.95;;
4353;SDS011;11018;51.258;6.806;2023-04-07T03:28:54;57.17;;;26.73;;
4353;SDS011;11018;51.258;6.806;2023-04-07T03:31:19;53.43;;;26.10;;
4353;SDS011;11018;51.258;6.806;2023-04-07T03:33:45;50.53;;;26.17;;
4353;SDS011;11018;51.258;6.806;2023-04-07T03:36:10;50.83;;;25.38;;
4353;SDS011;11018;51.258;6.806;2023-04-07T03:38:36;45.63;;;23.42;;
4353;SDS011;11018;51.258;6.806;2023-04-07T03:41:01;47.13;;;24.65;;
4353;SDS011;11018;51.258;6.806;2023-04-07T03:43:27;44.85;;;23.92;;
4353;SDS011;11018;51.258;6.806;2023-04-07T03:45:52;48.53;;;25.25;;
4353;SDS011;11018;51.258;6.806;2023-04-07T03:48:18;51.70;;;23.70;;
4353;SDS011;11018;51.258;6.806;2023-04-07T03:50:44;50.00;;;25.95;;
4353;SDS011;11018;51.258;6.806;2023-04-07T03:53:10;49.03;;;24.35;;
4353;SDS011;11018;51.258;6.806;2023-04-07T03:55:38;48.10;;;24.45;;
4353;SDS011;11018;51.258;6.806;2023-04-07T03:58:04;49.73;;;24.90;;
4353;SDS011;11018;51.258;6.806;2023-04-07T04:00:30;55.40;;;27.27;;
4353;SDS011;11018;51.258;6.806;2023-04-07T04:02:57;48.28;;;23.95;;
4353;SDS011;11018;51.258;6.806;2023-04-07T04:05:23;50.00;;;24.77;;
4353;SDS011;11018;51.258;6.806;2023-04-07T04:07:48;47.67;;;23.80;;
4353;SDS011;11018;51.258;6.806;2023-04-07T04:10:15;42.67;;;22.73;;
4353;SDS011;11018;51.258;6.806;2023-04-07T04:12:40;45.30;;;24.47;;
4353;SDS011;11018;51.258;6.806;2023-04-07T04:15:06;49.70;;;24.60;;
4353;SDS011;11018;51.258;6.806;2023-04-07T04:17:32;45.50;;;22.27;;
4353;SDS011;11018;51.258;6.806;2023-04-07T04:19:58;41.97;;;23.95;;
4353;SDS011;11018;51.258;6.806;2023-04-07T04:22:23;48.30;;;24.55;;
4353;SDS011;11018;51.258;6.806;2023-04-07T04:24:49;46.30;;;24.20;;
4353;SDS011;11018;51.258;6.806;2023-04-07T04:27:14;43.20;;;24.15;;
4353;SDS011;11018;51.258;6.806;2023-04-07T04:29:40;38.55;;;22.40;;
4353;SDS011;11018;51.258;6.806;2023-04-07T04:32:05;47.17;;;25.63;;
4353;SDS011;11018;51.258;6.806;2023-04-07T04:34:31;44.47;;;24.58;;
4353;SDS011;11018;51.258;6.806;2023-04-07T04:36:56;48.45;;;24.38;;
4353;SDS011;11018;51.258;6.806;2023-04-07T04:39:22;54.13;;;25.13;;
4353;SDS011;11018;51.258;6.806;2023-04-07T04:41:48;42.90;;;24.30;;
4353;SDS011;11018;51.258;6.806;2023-04-07T04:44:13;42.10;;;23.03;;
4353;SDS011;11018;51.258;6.806;2023-04-07T04:46:39;44.15;;;23.85;;
4353;SDS011;11018;51.258;6.806;2023-04-07T04:49:04;42.50;;;23.13;;
4353;SDS011;11018;51.258;6.806;2023-04-07T04:51:31;46.45;;;23.13;;
4353;SDS011;11018;51.258;6.806;2023-04-07T04:53:56;39.05;;;21.27;;
4353;SDS011;11018;51.258;6.806;2023-04-07T04:56:22;36.47;;;18.15;;
4353;SDS011;11018;51.258;6.806;2023-04-07T04:58:47;40.35;;;20.80;;
4353;SDS011;11018;51.258;6.806;2023-04-07T05:01:13;36.10;;;18.63;;
4353;SDS011;11018;51.258;6.806;2023-04-07T05:03:39;34.67;;;19.07;;
4353;SDS011;11018;51.258;6.806;2023-04-07T05:06:05;40.30;;;18.07;;
4353;SDS011;11018;51.258;6.806;2023-04-07T05:08:31;38.63;;;19.50;;
4353;SDS011;11018;51.258;6.806;2023-04-07T05:10:56;26.17;;;12.77;;
4353;SDS011;11018;51.258;6.806;2023-04-07T05:13:22;35.40;;;15.32;;
4353;SDS011;11018;51.258;6.806;2023-04-07T05:15:48;34.15;;;16.50;;
4353;SDS011;11018;51.258;6.806;2023-04-07T05:18:13;31.57;;;14.70;;
4353;SDS011;11018;51.258;6.806;2023-04-07T05:20:39;34.97;;;16.63;;
4353;SDS011;11018;51.258;6.806;2023-04-07T05:23:05;36.77;;;17.40;;
4353;SDS011;11018;51.258;6.806;2023-04-07T05:25:31;30.50;;;16.45;;
4353;SDS011;11018;51.258;6.806;2023-04-07T05:27:58;30.58;;;16.65;;
4353;SDS011;11018;51.258;6.806;2023-04-07T05:30:24;33.17;;;15.57;;
4353;SDS011;11018;51.258;6.806;2023-04-07T05:32:51;32.47;;;15.63;;
4353;SDS011;11018;51.258;6.806;2023-04-07T05:35:17;32.00;;;16.60;;
4353;SDS011;11018;51.258;6.806;2023-04-07T05:37:42;27.65;;;14.85;;
4353;SDS011;11018;51.258;6.806;2023-04-07T05:40:08;30.17;;;13.27;;
4353;SDS011;11018;51.258;6.806;2023-04-07T05:42:34;33.08;;;14.88;;
4353;SDS011;11018;51.258;6.806;2023-04-07T05:45:00;27.83;;;13.53;;
4353;SDS011;11018;51.258;6.806;2023-04-07T05:47:25;29.53;;;13.30;;
4353;SDS011;11018;51.258;6.806;2023-04-07T05:49:51;27.17;;;13.23;;
4353;SDS011;11018;51.258;6.806;2023-04-07T05:52:16;25.20;;;12.17;;
4353;SDS011;11018;51.258;6.806;2023-04-07T05:54:42;26.53;;;12.13;;
4353;SDS011;11018;51.258;6.806;2023-04-07T05:57:07;21.90;;;10.40;;
4353;SDS011;11018;51.258;6.806;2023-04-07T05:59:33;23.60;;;11.23;;
4353;SDS011;11018;51.258;6.806;2023-04-07T06:01:59;25.45;;;12.43;;
4353;SDS011;11018;51.258;6.806;2023-04-07T06:04:25;24.70;;;11.98;;
4353;SDS011;11018;51.258;6.806;2023-04-07T06:06:50;26.27;;;12.30;;
4353;SDS011;11018;51.258;6.806;2023-04-07T06:09:22;26.35;;;12.10;;
4353;SDS011;11018;51.258;6.806;2023-04-07T06:11:48;28.98;;;11.93;;
4353;SDS011;11018;51.258;6.806;2023-04-07T06:14:14;25.42;;;12.05;;
4353;SDS011;11018;51.258;6.806;2023-04-07T06:16:41;26.63;;;12.70;;
4353;SDS011;11018;51.258;6.806;2023-04-07T06:19:06;30.17;;;12.13;;
4353;SDS011;11018;51.258;6.806;2023-04-07T06:21:32;28.83;;;12.40;;
4353;SDS011;11018;51.258;6.806;2023-04-07T06:23:58;27.13;;;12.53;;
4353;SDS011;11018;51.258;6.806;2023-04-07T06:26:24;29.33;;;12.38;;
4353;SDS011;11018;51.258;6.806;2023-04-07T06:28:50;21.23;;;11.30;;
4353;SDS011;11018;51.258;6.806;2023-04-07T06:31:16;25.90;;;12.57;;
4353;SDS011;11018;51.258;6.806;2023-04-07T06:33:42;22.63;;;11.48;;
4353;SDS011;11018;51.258;6.806;2023-04-07T06:36:08;23.58;;;10.90;;
4353;SDS011;11018;51.258;6.806;2023-04-07T06:38:35;27.35;;;12.02;;
4353;SDS011;11018;51.258;6.806;2023-04-07T06:41:00;23.33;;;11.90;;
4353;SDS011;11018;51.258;6.806;2023-04-07T06:43:26;22.93;;;11.20;;
4353;SDS011;11018;51.258;6.806;2023-04-07T06:45:52;23.13;;;12.95;;
4353;SDS011;11018;51.258;6.806;2023-04-07T06:48:18;20.60;;;12.27;;
4353;SDS011;11018;51.258;6.806;2023-04-07T06:50:49;26.70;;;12.50;;
4353;SDS011;11018;51.258;6.806;2023-04-07T06:53:15;27.30;;;11.85;;
4353;SDS011;11018;51.258;6.806;2023-04-07T06:55:41;22.13;;;11.03;;
4353;SDS011;11018;51.258;6.806;2023-04-07T06:58:06;24.00;;;11.87;;
4353;SDS011;11018;51.258;6.806;2023-04-07T07:00:32;22.70;;;12.00;;
4353;SDS011;11018;51.258;6.806;2023-04-07T07:02:58;23.47;;;11.43;;
4353;SDS011;11018;51.258;6.806;2023-04-07T07:05:23;19.00;;;10.00;;
4353;SDS011;11018;51.258;6.806;2023-04-07T07:07:49;20.73;;;11.00;;
4353;SDS011;11018;51.258;6.806;2023-04-07T07:10:15;23.40;;;11.30;;
4353;SDS011;11018;51.258;6.806;2023-04-07T07:12:41;21.20;;;11.20;;
4353;SDS011;11018;51.258;6.806;2023-04-07T07:15:07;20.13;;;10.70;;
4353;SDS011;11018;51.258;6.806;2023-04-07T07:17:33;19.60;;;10.70;;
4353;SDS011;11018;51.258;6.806;2023-04-07T07:19:59;19.42;;;11.05;;
4353;SDS011;11018;51.258;6.806;2023-04-07T07:22:24;25.73;;;11.93;;
4353;SDS011;11018;51.258;6.806;2023-04-07T07:24:50;25.13;;;11.60;;
4353;SDS011;11018;51.258;6.806;2023-04-07T07:27:16;24.20;;;10.97;;
4353;SDS011;11018;51.258;6.806;2023-04-07T07:29:41;20.70;;;11.70;;
4353;SDS011;11018;51.258;6.806;2023-04-07T07:32:07;23.27;;;11.40;;
4353;SDS011;11018;51.258;6.806;2023-04-07T07:34:32;24.80;;;12.40;;
4353;SDS011;11018;51.258;6.806;2023-04-07T07:36:58;25.60;;;12.13;;
4353;SDS011;11018;51.258;6.806;2023-04-07T07:39:24;28.57;;;13.43;;
4353;SDS011;11018;51.258;6.806;2023-04-07T07:41:51;28.63;;;13.30;;
4353;SDS011;11018;51.258;6.806;2023-04-07T07:44:16;22.13;;;13.10;;
4353;SDS011;11018;51.258;6.806;2023-04-07T07:46:44;29.70;;;15.57;;
4353;SDS011;11018;51.258;6.806;2023-04-07T07:49:09;26.50;;;14.43;;
4353;SDS011;11018;51.258;6.806;2023-04-07T07:51:35;24.77;;;13.63;;
4353;SDS011;11018;51.258;6.806;2023-04-07T07:54:01;31.92;;;14.07;;
4353;SDS011;11018;51.258;6.806;2023-04-07T07:56:27;25.87;;;14.10;;
4353;SDS011;11018;51.258;6.806;2023-04-07T07:58:52;27.40;;;13.70;;
4353;SDS011;11018;51.258;6.806;2023-04-07T08:01:18;23.40;;;13.90;;
4353;SDS011;11018;51.258;6.806;2023-04-07T08:03:44;29.03;;;13.87;;
4353;SDS011;11018;51.258;6.806;2023-04-07T08:06:09;29.67;;;15.43;;
4353;SDS011;11018;51.258;6.806;2023-04-07T08:08:35;28.52;;;14.85;;
4353;SDS011;11018;51.258;6.806;2023-04-07T08:11:01;29.98;;;14.63;;
4353;SDS011;11018;51.258;6.806;2023-04-07T08:13:27;31.75;;;16.02;;
4353;SDS011;11018;51.258;6.806;2023-04-07T08:15:52;34.70;;;16.45;;
4353;SDS011;11018;51.258;6.806;2023-04-07T08:18:18;32.70;;;17.35;;
4353;SDS011;11018;51.258;6.806;2023-04-07T08:20:43;29.25;;;16.50;;
4353;SDS011;11018;51.258;6.806;2023-04-07T08:23:10;30.08;;;17.15;;
4353;SDS011;11018;51.258;6.806;2023-04-07T08:25:36;30.48;;;17.40;;
4353;SDS011;11018;51.258;6.806;2023-04-07T08:28:04;29.13;;;16.23;;
4353;SDS011;11018;51.258;6.806;2023-04-07T08:30:30;30.30;;;15.45;;
4353;SDS011;11018;51.258;6.806;2023-04-07T08:32:55;29.92;;;16.05;;
4353;SDS011;11018;51.258;6.806;2023-04-07T08:35:21;31.15;;;16.50;;
4353;SDS011;11018;51.258;6.806;2023-04-07T08:37:47;31.92;;;16.30;;
4353;SDS011;11018;51.258;6.806;2023-04-07T08:40:13;27.50;;;16.97;;
4353;SDS011;11018;51.258;6.806;2023-04-07T08:42:40;32.10;;;17.50;;
4353;SDS011;11018;51.258;6.806;2023-04-07T08:45:07;31.53;;;16.00;;
4353;SDS011;11018;51.258;6.806;2023-04-07T08:47:34;32.75;;;16.50;;
4353;SDS011;11018;51.258;6.806;2023-04-07T08:50:01;31.15;;;17.30;;
4353;SDS011;11018;51.258;6.806;2023-04-07T08:52:44;31.80;;;16.70;;
4353;SDS011;11018;51.258;6.806;2023-04-07T08:55:14;37.30;;;16.25;;
4353;SDS011;11018;51.258;6.806;2023-04-07T08:57:40;31.50;;;16.20;;
4353;SDS011;11018;51.258;6.806;2023-04-07T09:00:07;32.47;;;17.10;;
4353;SDS011;11018;51.258;6.806;2023-04-07T09:02:33;36.30;;;18.13;;
4353;SDS011;11018;51.258;6.806;2023-04-07T09:05:00;36.88;;;16.10;;
4353;SDS011;11018;51.258;6.806;2023-04-07T09:07:32;30.73;;;16.58;;
4353;SDS011;11018;51.258;6.806;2023-04-07T09:09:59;33.83;;;17.75;;
4353;SDS011;11018;51.258;6.806;2023-04-07T09:12:28;37.22;;;15.95;;
4353;SDS011;11018;51.258;6.806;2023-04-07T09:14:55;33.45;;;17.25;;
4353;SDS011;11018;51.258;6.806;2023-04-07T09:17:20;32.42;;;16.85;;
4353;SDS011;11018;51.258;6.806;2023-04-07T09:19:46;36.72;;;17.27;;
4353;SDS011;11018;51.258;6.806;2023-04-07T09:22:12;29.00;;;15.23;;
4353;SDS011;11018;51.258;6.806;2023-04-07T09:24:39;33.55;;;16.50;;
4353;SDS011;11018;51.258;6.806;2023-04-07T09:27:12;31.17;;;16.50;;
4353;SDS011;11018;51.258;6.806;2023-04-07T09:29:40;39.28;;;17.85;;
4353;SDS011;11018;51.258;6.806;2023-04-07T09:32:07;35.20;;;18.02;;
4353;SDS011;11018;51.258;6.806;2023-04-07T09:34:34;36.47;;;17.73;;
4353;SDS011;11018;51.258;6.806;2023-04-07T09:37:02;39.17;;;18.27;;
4353;SDS011;11018;51.258;6.806;2023-04-07T09:39:30;34.15;;;18.40;;
4353;SDS011;11018;51.258;6.806;2023-04-07T09:41:56;28.90;;;16.00;;
4353;SDS011;11018;51.258;6.806;2023-04-07T09:44:22;34.50;;;16.55;;
4353;SDS011;11018;51.258;6.806;2023-04-07T09:49:18;33.33;;;17.48;;
4353;SDS011;11018;51.258;6.806;2023-04-07T09:51:55;32.72;;;17.42;;
4353;SDS011;11018;51.258;6.806;2023-04-07T09:54:34;33.92;;;18.30;;
4353;SDS011;11018;51.258;6.806;2023-04-07T09:57:01;35.45;;;19.00;;
4353;SDS011;11018;51.258;6.806;2023-04-07T09:59:29;36.10;;;18.75;;
4353;SDS011;11018;51.258;6.806;2023-04-07T10:01:56;36.00;;;18.25;;
4353;SDS011;11018;51.258;6.806;2023-04-07T10:04:22;37.05;;;18.30;;
4353;SDS011;11018;51.258;6.806;2023-04-07T10:06:49;37.28;;;19.85;;
4353;SDS011;11018;51.258;6.806;2023-04-07T10:09:15;33.05;;;19.10;;
4353;SDS011;11018;51.258;6.806;2023-04-07T10:11:42;34.90;;;17.85;;
4353;SDS011;11018;51.258;6.806;2023-04-07T10:14:11;35.53;;;18.85;;
4353;SDS011;11018;51.258;6.806;2023-04-07T10:16:37;34.30;;;19.23;;
4353;SDS011;11018;51.258;6.806;2023-04-07T10:19:03;35.55;;;17.85;;
4353;SDS011;11018;51.258;6.806;2023-04-07T10:21:30;32.20;;;18.05;;
4353;SDS011;11018;51.258;6.806;2023-04-07T10:24:47;31.00;;;17.07;;
4353;SDS011;11018;51.258;6.806;2023-04-07T10:26:55;35.67;;;16.80;;
4353;SDS011;11018;51.258;6.806;2023-04-07T10:29:25;34.15;;;18.95;;
4353;SDS011;11018;51.258;6.806;2023-04-07T10:31:55;28.40;;;15.55;;
4353;SDS011;11018;51.258;6.806;2023-04-07T10:37:20;36.45;;;17.40;;
4353;SDS011;11018;51.258;6.806;2023-04-07T10:39:46;27.25;;;14.13;;
4353;SDS011;11018;51.258;6.806;2023-04-07T10:45:03;25.87;;;14.20;;
4353;SDS011;11018;51.258;6.806;2023-04-07T10:47:30;27.47;;;14.97;;
4353;SDS011;11018;51.258;6.806;2023-04-07T10:52:36;26.85;;;13.20;;
4353;SDS011;11018;51.258;6.806;2023-04-07T11:03:31;25.27;;;14.50;;
4353;SDS011;11018;51.258;6.806;2023-04-07T11:06:11;23.13;;;13.30;;
4353;SDS011;11018;51.258;6.806;2023-04-07T11:08:41;25.75;;;14.45;;
4353;SDS011;11018;51.258;6.806;2023-04-07T11:11:12;25.50;;;14.13;;
4353;SDS011;11018;51.258;6.806;2023-04-07T11:13:47;28.85;;;14.80;;
4353;SDS011;11018;51.258;6.806;2023-04-07T11:16:14;21.58;;;11.88;;
4353;SDS011;11018;51.258;6.806;2023-04-07T11:18:42;19.30;;;11.40;;
4353;SDS011;11018;51.258;6.806;2023-04-07T11:21:08;23.13;;;13.63;;
4353;SDS011;11018;51.258;6.806;2023-04-07T11:23:37;21.83;;;12.70;;
4353;SDS011;11018;51.258;6.806;2023-04-07T11:26:08;22.15;;;13.20;;
4353;SDS011;11018;51.258;6.806;2023-04-07T11:28:50;18.07;;;10.60;;
4353;SDS011;11018;51.258;6.806;2023-04-07T11:31:20;19.63;;;10.63;;
4353;SDS011;11018;51.258;6.806;2023-04-07T11:33:51;17.13;;;10.18;;
4353;SDS011;11018;51.258;6.806;2023-04-07T11:36:25;18.90;;;11.83;;
4353;SDS011;11018;51.258;6.806;2023-04-07T11:38:55;26.65;;;8.50;;
4353;SDS011;11018;51.258;6.806;2023-04-07T11:41:21;22.10;;;10.85;;
4353;SDS011;11018;51.258;6.806;2023-04-07T11:43:47;22.10;;;12.30;;
4353;SDS011;11018;51.258;6.806;2023-04-07T11:46:15;26.23;;;13.70;;
4353;SDS011;11018;51.258;6.806;2023-04-07T11:48:43;24.10;;;12.25;;
4353;SDS011;11018;51.258;6.806;2023-04-07T11:51:17;25.63;;;13.80;;
4353;SDS011;11018;51.258;6.806;2023-04-07T11:53:53;24.98;;;13.45;;
4353;SDS011;11018;51.258;6.806;2023-04-07T11:56:19;24.55;;;12.77;;
4353;SDS011;11018;51.258;6.806;2023-04-07T11:58:55;25.35;;;12.25;;
4353;SDS011;11018;51.258;6.806;2023-04-07T12:01:21;26.52;;;14.10;;
4353;SDS011;11018;51.258;6.806;2023-04-07T12:08:59;29.50;;;15.00;;
4353;SDS011;11018;51.258;6.806;2023-04-07T12:11:26;32.33;;;14.50;;
4353;SDS011;11018;51.258;6.806;2023-04-07T12:13:52;29.90;;;14.00;;
4353;SDS011;11018;51.258;6.806;2023-04-07T12:16:18;28.23;;;13.93;;
4353;SDS011;11018;51.258;6.806;2023-04-07T12:18:44;27.75;;;14.60;;
4353;SDS011;11018;51.258;6.806;2023-04-07T12:21:10;29.80;;;16.30;;
4353;SDS011;11018;51.258;6.806;2023-04-07T12:23:36;31.98;;;16.80;;
4353;SDS011;11018;51.258;6.806;2023-04-07T12:26:01;31.50;;;17.30;;
4353;SDS011;11018;51.258;6.806;2023-04-07T12:28:27;28.05;;;15.43;;
4353;SDS011;11018;51.258;6.806;2023-04-07T12:30:53;27.75;;;15.63;;
4353;SDS011;11018;51.258;6.806;2023-04-07T12:33:19;23.55;;;15.07;;
4353;SDS011;11018;51.258;6.806;2023-04-07T12:35:45;26.25;;;14.80;;
4353;SDS011;11018;51.258;6.806;2023-04-07T12:38:10;22.73;;;13.30;;
4353;SDS011;11018;51.258;6.806;2023-04-07T12:40:36;26.10;;;15.27;;
4353;SDS011;11018;51.258;6.806;2023-04-07T12:43:02;31.50;;;15.70;;
4353;SDS011;11018;51.258;6.806;2023-04-07T12:45:28;22.40;;;13.90;;
4353;SDS011;11018;51.258;6.806;2023-04-07T12:47:55;28.37;;;15.20;;
4353;SDS011;11018;51.258;6.806;2023-04-07T12:50:21;22.20;;;13.00;;
4353;SDS011;11018;51.258;6.806;2023-04-07T12:52:47;26.02;;;13.40;;
4353;SDS011;11018;51.258;6.806;2023-04-07T12:55:12;23.45;;;14.90;;
4353;SDS011;11018;51.258;6.806;2023-04-07T12:57:38;27.35;;;13.60;;
4353;SDS011;11018;51.258;6.806;2023-04-07T13:00:04;20.60;;;11.35;;
4353;SDS011;11018;51.258;6.806;2023-04-07T13:02:30;24.50;;;13.80;;
4353;SDS011;11018;51.258;6.806;2023-04-07T13:04:55;25.17;;;14.23;;
4353;SDS011;11018;51.258;6.806;2023-04-07T13:07:21;29.93;;;15.90;;
4353;SDS011;11018;51.258;6.806;2023-04-07T13:09:47;28.10;;;14.23;;
4353;SDS011;11018;51.258;6.806;2023-04-07T13:12:12;21.40;;;14.30;;
4353;SDS011;11018;51.258;6.806;2023-04-07T13:14:38;21.33;;;12.85;;
4353;SDS011;11018;51.258;6.806;2023-04-07T13:17:05;23.70;;;12.10;;
4353;SDS011;11018;51.258;6.806;2023-04-07T13:19:31;26.77;;;13.10;;
4353;SDS011;11018;51.258;6.806;2023-04-07T13:21:56;22.13;;;11.35;;
4353;SDS011;11018;51.258;6.806;2023-04-07T13:24:22;21.27;;;12.88;;
4353;SDS011;11018;51.258;6.806;2023-04-07T13:26:48;20.17;;;11.50;;
4353;SDS011;11018;51.258;6.806;2023-04-07T13:29:15;19.97;;;11.73;;
4353;SDS011;11018;51.258;6.806;2023-04-07T13:31:41;17.40;;;10.77;;
4353;SDS011;11018;51.258;6.806;2023-04-07T13:34:06;21.17;;;12.33;;
4353;SDS011;11018;51.258;6.806;2023-04-07T13:36:32;26.75;;;11.63;;
4353;SDS011;11018;51.258;6.806;2023-04-07T13:38:58;19.25;;;12.30;;
4353;SDS011;11018;51.258;6.806;2023-04-07T13:41:26;23.65;;;12.18;;
4353;SDS011;11018;51.258;6.806;2023-04-07T13:43:51;24.33;;;13.20;;
4353;SDS011;11018;51.258;6.806;2023-04-07T13:46:17;21.65;;;12.27;;
4353;SDS011;11018;51.258;6.806;2023-04-07T13:48:46;20.30;;;11.73;;
4353;SDS011;11018;51.258;6.806;2023-04-07T13:51:11;27.67;;;13.40;;
4353;SDS011;11018;51.258;6.806;2023-04-07T13:53:37;24.85;;;13.20;;
4353;SDS011;11018;51.258;6.806;2023-04-07T13:56:03;24.70;;;13.07;;
4353;SDS011;11018;51.258;6.806;2023-04-07T13:58:32;29.95;;;12.65;;
4353;SDS011;11018;51.258;6.806;2023-04-07T14:01:02;22.65;;;13.25;;
4353;SDS011;11018;51.258;6.806;2023-04-07T14:03:28;28.20;;;14.70;;
4353;SDS011;11018;51.258;6.806;2023-04-07T14:05:57;30.83;;;15.95;;
4353;SDS011;11018;51.258;6.806;2023-04-07T14:08:25;29.60;;;16.92;;
4353;SDS011;11018;51.258;6.806;2023-04-07T14:10:51;29.47;;;16.50;;
4353;SDS011;11018;51.258;6.806;2023-04-07T14:13:17;28.90;;;15.23;;
4353;SDS011;11018;51.258;6.806;2023-04-07T14:15:42;25.50;;;15.87;;
4353;SDS011;11018;51.258;6.806;2023-04-07T14:18:08;29.85;;;15.23;;
4353;SDS011;11018;51.258;6.806;2023-04-07T14:20:34;30.15;;;15.70;;
4353;SDS011;11018;51.258;6.806;2023-04-07T14:23:00;35.42;;;16.25;;
4353;SDS011;11018;51.258;6.806;2023-04-07T14:25:26;32.70;;;15.20;;
4353;SDS011;11018;51.258;6.806;2023-04-07T14:27:51;32.80;;;16.07;;
4353;SDS011;11018;51.258;6.806;2023-04-07T14:30:17;27.17;;;14.97;;
4353;SDS011;11018;51.258;6.806;2023-04-07T14:32:43;28.63;;;15.20;;
4353;SDS011;11018;51.258;6.806;2023-04-07T14:35:09;27.70;;;14.57;;
4353;SDS011;11018;51.258;6.806;2023-04-07T14:37:35;31.52;;;14.40;;
4353;SDS011;11018;51.258;6.806;2023-04-07T14:40:03;27.13;;;15.15;;
4353;SDS011;11018;51.258;6.806;2023-04-07T14:42:30;29.13;;;15.47;;
4353;SDS011;11018;51.258;6.806;2023-04-07T14:44:56;30.40;;;16.73;;
4353;SDS011;11018;51.258;6.806;2023-04-07T14:47:22;32.05;;;15.90;;
4353;SDS011;11018;51.258;6.806;2023-04-07T14:49:49;29.40;;;15.32;;
4353;SDS011;11018;51.258;6.806;2023-04-07T14:52:15;21.10;;;12.43;;
4353;SDS011;11018;51.258;6.806;2023-04-07T14:54:41;27.70;;;13.60;;
4353;SDS011;11018;51.258;6.806;2023-04-07T14:57:06;28.73;;;14.33;;
4353;SDS011;11018;51.258;6.806;2023-04-07T14:59:32;26.70;;;13.13;;
4353;SDS011;11018;51.258;6.806;2023-04-07T15:01:58;28.45;;;13.15;;
4353;SDS011;11018;51.258;6.806;2023-04-07T15:04:23;26.50;;;12.90;;
4353;SDS011;11018;51.258;6.806;2023-04-07T15:06:49;30.45;;;12.88;;
4353;SDS011;11018;51.258;6.806;2023-04-07T15:09:14;21.77;;;10.53;;